sensor_id;sensor_type;location;lat;lon;timestamp;temperature;humidity
56172;DHT22;42052;41.634;-0.946;2023-07-16T00:00:12;26.40;41.80
56172;DHT22;42052;41.634;-0.946;2023-07-16T00:02:38;26.40;41.80
56172;DHT22;42052;41.634;-0.946;2023-07-16T00:05:04;26.50;41.90
56172;DHT22;42052;41.634;-0.946;2023-07-16T00:07:31;26.50;41.80
56172;DHT22;42052;41.634;-0.946;2023-07-16T00:09:57;26.50;41.80
56172;DHT22;42052;41.634;-0.946;2023-07-16T00:12:22;26.50;41.80
56172;DHT22;42052;41.634;-0.946;2023-07-16T00:14:48;26.50;41.70
56172;DHT22;42052;41.634;-0.946;2023-07-16T00:17:14;26.50;41.60
56172;DHT22;42052;41.634;-0.946;2023-07-16T00:19:40;26.50;41.50
56172;DHT22;42052;41.634;-0.946;2023-07-16T00:22:05;26.60;41.40
56172;DHT22;42052;41.634;-0.946;2023-07-16T00:24:31;26.60;41.30
56172;DHT22;42052;41.634;-0.946;2023-07-16T00:26:57;26.60;41.40
56172;DHT22;42052;41.634;-0.946;2023-07-16T00:29:23;26.60;41.50
56172;DHT22;42052;41.634;-0.946;2023-07-16T00:31:49;26.60;41.40
56172;DHT22;42052;41.634;-0.946;2023-07-16T00:34:15;26.60;41.40
56172;DHT22;42052;41.634;-0.946;2023-07-16T00:36:41;26.60;41.30
56172;DHT22;42052;41.634;-0.946;2023-07-16T00:39:07;26.60;41.40
56172;DHT22;42052;41.634;-0.946;2023-07-16T00:41:32;26.60;41.30
56172;DHT22;42052;41.634;-0.946;2023-07-16T00:43:58;26.60;41.30
56172;DHT22;42052;41.634;-0.946;2023-07-16T00:46:24;26.60;41.30
56172;DHT22;42052;41.634;-0.946;2023-07-16T00:48:50;26.60;41.30
56172;DHT22;42052;41.634;-0.946;2023-07-16T00:51:17;26.60;41.20
56172;DHT22;42052;41.634;-0.946;2023-07-16T00:53:43;26.60;41.30
56172;DHT22;42052;41.634;-0.946;2023-07-16T00:56:10;26.60;41.20
56172;DHT22;42052;41.634;-0.946;2023-07-16T00:58:36;26.60;41.20
56172;DHT22;42052;41.634;-0.946;2023-07-16T01:01:02;26.60;41.20
56172;DHT22;42052;41.634;-0.946;2023-07-16T01:03:28;26.60;41.20
56172;DHT22;42052;41.634;-0.946;2023-07-16T01:06:38;26.60;41.20
56172;DHT22;42052;41.634;-0.946;2023-07-16T01:09:15;26.60;41.20
56172;DHT22;42052;41.634;-0.946;2023-07-16T01:11:43;26.60;41.20
56172;DHT22;42052;41.634;-0.946;2023-07-16T01:14:10;26.60;41.20
56172;DHT22;42052;41.634;-0.946;2023-07-16T01:16:37;26.60;41.20
56172;DHT22;42052;41.634;-0.946;2023-07-16T01:19:04;26.60;41.20
56172;DHT22;42052;41.634;-0.946;2023-07-16T01:21:35;26.60;41.30
56172;DHT22;42052;41.634;-0.946;2023-07-16T01:29:51;26.70;41.20
56172;DHT22;42052;41.634;-0.946;2023-07-16T01:32:17;26.70;41.30
56172;DHT22;42052;41.634;-0.946;2023-07-16T01:34:43;26.60;41.30
56172;DHT22;42052;41.634;-0.946;2023-07-16T01:37:10;26.60;41.30
56172;DHT22;42052;41.634;-0.946;2023-07-16T01:39:36;26.70;41.30
56172;DHT22;42052;41.634;-0.946;2023-07-16T01:42:02;26.70;41.30
56172;DHT22;42052;41.634;-0.946;2023-07-16T01:44:28;26.70;41.20
56172;DHT22;42052;41.634;-0.946;2023-07-16T01:49:32;26.70;41.20
56172;DHT22;42052;41.634;-0.946;2023-07-16T01:52:00;26.70;41.20
56172;DHT22;42052;41.634;-0.946;2023-07-16T01:54:26;26.70;41.20
56172;DHT22;42052;41.634;-0.946;2023-07-16T01:56:52;26.70;41.20
56172;DHT22;42052;41.634;-0.946;2023-07-16T01:59:18;26.60;41.20
56172;DHT22;42052;41.634;-0.946;2023-07-16T02:01:44;26.70;41.20
56172;DHT22;42052;41.634;-0.946;2023-07-16T02:04:09;26.70;41.10
56172;DHT22;42052;41.634;-0.946;2023-07-16T02:06:35;26.60;41.00
56172;DHT22;42052;41.634;-0.946;2023-07-16T02:09:01;26.70;41.00
56172;DHT22;42052;41.634;-0.946;2023-07-16T02:11:29;26.60;41.00
56172;DHT22;42052;41.634;-0.946;2023-07-16T02:13:54;26.70;41.10
56172;DHT22;42052;41.634;-0.946;2023-07-16T02:16:20;26.70;41.00
56172;DHT22;42052;41.634;-0.946;2023-07-16T02:18:46;26.60;41.00
56172;DHT22;42052;41.634;-0.946;2023-07-16T02:21:12;26.70;41.00
56172;DHT22;42052;41.634;-0.946;2023-07-16T02:23:37;26.70;40.90
56172;DHT22;42052;41.634;-0.946;2023-07-16T02:26:03;26.70;40.90
56172;DHT22;42052;41.634;-0.946;2023-07-16T02:28:29;26.70;40.80
56172;DHT22;42052;41.634;-0.946;2023-07-16T02:30:54;26.60;40.80
56172;DHT22;42052;41.634;-0.946;2023-07-16T02:33:20;26.60;40.70
56172;DHT22;42052;41.634;-0.946;2023-07-16T02:35:47;26.70;41.00
56172;DHT22;42052;41.634;-0.946;2023-07-16T02:38:14;26.60;40.90
56172;DHT22;42052;41.634;-0.946;2023-07-16T02:40:44;26.60;40.80
56172;DHT22;42052;41.634;-0.946;2023-07-16T02:43:11;26.60;40.70
56172;DHT22;42052;41.634;-0.946;2023-07-16T02:45:36;26.60;40.60
56172;DHT22;42052;41.634;-0.946;2023-07-16T02:48:04;26.70;40.70
56172;DHT22;42052;41.634;-0.946;2023-07-16T02:50:30;26.60;40.70
56172;DHT22;42052;41.634;-0.946;2023-07-16T02:52:55;26.60;40.70
56172;DHT22;42052;41.634;-0.946;2023-07-16T02:55:21;26.70;40.80
56172;DHT22;42052;41.634;-0.946;2023-07-16T02:57:47;26.60;40.60
56172;DHT22;42052;41.634;-0.946;2023-07-16T03:00:13;26.60;40.60
56172;DHT22;42052;41.634;-0.946;2023-07-16T03:02:39;26.70;40.60
56172;DHT22;42052;41.634;-0.946;2023-07-16T03:05:05;26.60;40.50
56172;DHT22;42052;41.634;-0.946;2023-07-16T03:07:30;26.60;40.50
56172;DHT22;42052;41.634;-0.946;2023-07-16T03:09:56;26.70;40.60
56172;DHT22;42052;41.634;-0.946;2023-07-16T03:12:22;26.60;41.30
56172;DHT22;42052;41.634;-0.946;2023-07-16T03:14:49;26.60;40.40
56172;DHT22;42052;41.634;-0.946;2023-07-16T03:17:16;26.60;40.50
56172;DHT22;42052;41.634;-0.946;2023-07-16T03:19:41;26.60;40.40
56172;DHT22;42052;41.634;-0.946;2023-07-16T03:22:07;26.60;40.40
56172;DHT22;42052;41.634;-0.946;2023-07-16T03:24:33;26.60;40.40
56172;DHT22;42052;41.634;-0.946;2023-07-16T03:26:59;26.60;40.40
56172;DHT22;42052;41.634;-0.946;2023-07-16T03:29:24;26.60;40.50
56172;DHT22;42052;41.634;-0.946;2023-07-16T03:31:50;26.60;40.90
56172;DHT22;42052;41.634;-0.946;2023-07-16T03:34:16;26.60;40.60
56172;DHT22;42052;41.634;-0.946;2023-07-16T03:36:42;26.60;40.50
56172;DHT22;42052;41.634;-0.946;2023-07-16T03:39:07;26.60;40.50
56172;DHT22;42052;41.634;-0.946;2023-07-16T03:41:33;26.60;40.60
56172;DHT22;42052;41.634;-0.946;2023-07-16T03:43:59;26.60;40.70
56172;DHT22;42052;41.634;-0.946;2023-07-16T03:46:25;26.60;40.70
56172;DHT22;42052;41.634;-0.946;2023-07-16T03:48:52;26.60;40.60
56172;DHT22;42052;41.634;-0.946;2023-07-16T03:51:18;26.60;40.60
56172;DHT22;42052;41.634;-0.946;2023-07-16T03:53:44;26.60;40.60
56172;DHT22;42052;41.634;-0.946;2023-07-16T03:56:09;26.60;40.70
56172;DHT22;42052;41.634;-0.946;2023-07-16T03:58:35;26.60;40.70
56172;DHT22;42052;41.634;-0.946;2023-07-16T04:01:01;26.60;40.60
56172;DHT22;42052;41.634;-0.946;2023-07-16T04:03:27;26.60;40.60
56172;DHT22;42052;41.634;-0.946;2023-07-16T04:06:04;26.60;40.50
56172;DHT22;42052;41.634;-0.946;2023-07-16T04:08:30;26.60;40.50
56172;DHT22;42052;41.634;-0.946;2023-07-16T04:10:55;26.60;40.50
56172;DHT22;42052;41.634;-0.946;2023-07-16T04:13:21;26.60;40.40
56172;DHT22;42052;41.634;-0.946;2023-07-16T04:15:47;26.60;40.40
56172;DHT22;42052;41.634;-0.946;2023-07-16T04:18:13;26.60;40.40
56172;DHT22;42052;41.634;-0.946;2023-07-16T04:20:39;26.60;40.40
56172;DHT22;42052;41.634;-0.946;2023-07-16T04:23:04;26.60;40.40
56172;DHT22;42052;41.634;-0.946;2023-07-16T04:25:30;26.60;40.40
56172;DHT22;42052;41.634;-0.946;2023-07-16T04:27:56;26.60;40.30
56172;DHT22;42052;41.634;-0.946;2023-07-16T04:30:22;26.60;40.30
56172;DHT22;42052;41.634;-0.946;2023-07-16T04:32:48;26.60;40.30
56172;DHT22;42052;41.634;-0.946;2023-07-16T04:35:13;26.60;40.30
56172;DHT22;42052;41.634;-0.946;2023-07-16T04:37:39;26.60;40.30
56172;DHT22;42052;41.634;-0.946;2023-07-16T04:40:06;26.60;40.40
56172;DHT22;42052;41.634;-0.946;2023-07-16T04:42:32;26.60;40.50
56172;DHT22;42052;41.634;-0.946;2023-07-16T04:44:57;26.60;40.40
56172;DHT22;42052;41.634;-0.946;2023-07-16T04:47:23;26.60;40.40
56172;DHT22;42052;41.634;-0.946;2023-07-16T04:49:49;26.60;40.40
56172;DHT22;42052;41.634;-0.946;2023-07-16T04:52:15;26.60;40.40
56172;DHT22;42052;41.634;-0.946;2023-07-16T04:54:40;26.60;40.40
56172;DHT22;42052;41.634;-0.946;2023-07-16T04:57:07;26.60;40.50
56172;DHT22;42052;41.634;-0.946;2023-07-16T04:59:33;26.60;40.40
56172;DHT22;42052;41.634;-0.946;2023-07-16T05:01:59;26.60;40.40
56172;DHT22;42052;41.634;-0.946;2023-07-16T05:04:24;26.60;40.40
56172;DHT22;42052;41.634;-0.946;2023-07-16T05:06:52;26.60;40.40
56172;DHT22;42052;41.634;-0.946;2023-07-16T05:09:18;26.60;40.50
56172;DHT22;42052;41.634;-0.946;2023-07-16T05:11:43;26.60;40.40
56172;DHT22;42052;41.634;-0.946;2023-07-16T05:14:09;26.60;40.40
56172;DHT22;42052;41.634;-0.946;2023-07-16T05:16:35;26.60;40.50
56172;DHT22;42052;41.634;-0.946;2023-07-16T05:19:00;26.60;40.40
56172;DHT22;42052;41.634;-0.946;2023-07-16T05:21:26;26.60;40.40
56172;DHT22;42052;41.634;-0.946;2023-07-16T05:23:52;26.60;40.50
56172;DHT22;42052;41.634;-0.946;2023-07-16T05:26:18;26.60;40.50
56172;DHT22;42052;41.634;-0.946;2023-07-16T05:28:43;26.60;40.50
56172;DHT22;42052;41.634;-0.946;2023-07-16T05:31:09;26.60;40.50
56172;DHT22;42052;41.634;-0.946;2023-07-16T05:33:35;26.60;40.50
56172;DHT22;42052;41.634;-0.946;2023-07-16T05:36:00;26.60;40.60
56172;DHT22;42052;41.634;-0.946;2023-07-16T05:38:26;26.60;40.60
56172;DHT22;42052;41.634;-0.946;2023-07-16T05:40:52;26.60;40.60
56172;DHT22;42052;41.634;-0.946;2023-07-16T05:43:18;26.60;40.70
56172;DHT22;42052;41.634;-0.946;2023-07-16T05:45:43;26.50;40.60
56172;DHT22;42052;41.634;-0.946;2023-07-16T05:48:09;26.60;40.70
56172;DHT22;42052;41.634;-0.946;2023-07-16T05:50:35;26.60;40.80
56172;DHT22;42052;41.634;-0.946;2023-07-16T05:53:01;26.50;40.60
56172;DHT22;42052;41.634;-0.946;2023-07-16T05:55:26;26.60;40.80
56172;DHT22;42052;41.634;-0.946;2023-07-16T05:57:52;26.60;41.40
56172;DHT22;42052;41.634;-0.946;2023-07-16T06:00:18;26.60;40.70
56172;DHT22;42052;41.634;-0.946;2023-07-16T06:02:44;26.60;40.70
56172;DHT22;42052;41.634;-0.946;2023-07-16T06:05:10;26.60;40.60
56172;DHT22;42052;41.634;-0.946;2023-07-16T06:07:35;26.50;40.50
56172;DHT22;42052;41.634;-0.946;2023-07-16T06:10:01;26.60;40.60
56172;DHT22;42052;41.634;-0.946;2023-07-16T06:12:27;26.50;40.60
56172;DHT22;42052;41.634;-0.946;2023-07-16T06:14:53;26.50;40.70
56172;DHT22;42052;41.634;-0.946;2023-07-16T06:17:19;26.50;40.60
56172;DHT22;42052;41.634;-0.946;2023-07-16T06:19:45;26.50;40.60
56172;DHT22;42052;41.634;-0.946;2023-07-16T06:22:10;26.50;40.70
56172;DHT22;42052;41.634;-0.946;2023-07-16T06:24:36;26.50;40.70
56172;DHT22;42052;41.634;-0.946;2023-07-16T06:27:02;26.50;40.80
56172;DHT22;42052;41.634;-0.946;2023-07-16T06:29:28;26.50;40.90
56172;DHT22;42052;41.634;-0.946;2023-07-16T06:31:58;26.50;41.00
56172;DHT22;42052;41.634;-0.946;2023-07-16T06:34:24;26.50;41.10
56172;DHT22;42052;41.634;-0.946;2023-07-16T06:36:50;26.50;41.10
56172;DHT22;42052;41.634;-0.946;2023-07-16T06:39:16;26.50;41.10
56172;DHT22;42052;41.634;-0.946;2023-07-16T06:41:42;26.50;41.10
56172;DHT22;42052;41.634;-0.946;2023-07-16T06:44:08;26.50;41.10
56172;DHT22;42052;41.634;-0.946;2023-07-16T06:46:34;26.50;41.20
56172;DHT22;42052;41.634;-0.946;2023-07-16T06:48:59;26.50;41.10
56172;DHT22;42052;41.634;-0.946;2023-07-16T06:51:25;26.50;41.10
56172;DHT22;42052;41.634;-0.946;2023-07-16T06:53:51;26.50;41.10
56172;DHT22;42052;41.634;-0.946;2023-07-16T06:56:17;26.50;41.20
56172;DHT22;42052;41.634;-0.946;2023-07-16T06:58:42;26.60;41.20
56172;DHT22;42052;41.634;-0.946;2023-07-16T07:01:08;26.50;41.20
56172;DHT22;42052;41.634;-0.946;2023-07-16T07:03:35;26.50;41.20
56172;DHT22;42052;41.634;-0.946;2023-07-16T07:06:04;26.50;41.20
56172;DHT22;42052;41.634;-0.946;2023-07-16T07:08:30;26.50;41.10
56172;DHT22;42052;41.634;-0.946;2023-07-16T07:10:56;26.50;41.10
56172;DHT22;42052;41.634;-0.946;2023-07-16T07:13:23;26.50;41.10
56172;DHT22;42052;41.634;-0.946;2023-07-16T07:15:49;26.60;41.30
56172;DHT22;42052;41.634;-0.946;2023-07-16T07:18:15;26.50;41.30
56172;DHT22;42052;41.634;-0.946;2023-07-16T07:20:41;26.60;41.40
56172;DHT22;42052;41.634;-0.946;2023-07-16T07:23:07;26.60;41.30
56172;DHT22;42052;41.634;-0.946;2023-07-16T07:25:33;26.50;41.30
56172;DHT22;42052;41.634;-0.946;2023-07-16T07:27:59;26.60;41.30
56172;DHT22;42052;41.634;-0.946;2023-07-16T07:30:25;26.50;41.30
56172;DHT22;42052;41.634;-0.946;2023-07-16T07:32:51;26.50;41.40
56172;DHT22;42052;41.634;-0.946;2023-07-16T07:35:17;26.60;41.50
56172;DHT22;42052;41.634;-0.946;2023-07-16T07:37:43;26.60;41.80
56172;DHT22;42052;41.634;-0.946;2023-07-16T07:40:09;26.60;42.30
56172;DHT22;42052;41.634;-0.946;2023-07-16T07:42:35;26.60;42.10
56172;DHT22;42052;41.634;-0.946;2023-07-16T07:45:01;26.60;41.90
56172;DHT22;42052;41.634;-0.946;2023-07-16T07:47:27;26.60;41.90
56172;DHT22;42052;41.634;-0.946;2023-07-16T07:49:53;26.60;42.10
56172;DHT22;42052;41.634;-0.946;2023-07-16T07:52:18;26.60;42.30
56172;DHT22;42052;41.634;-0.946;2023-07-16T07:54:44;26.60;42.30
56172;DHT22;42052;41.634;-0.946;2023-07-16T07:57:10;26.60;42.30
56172;DHT22;42052;41.634;-0.946;2023-07-16T07:59:36;26.60;42.20
56172;DHT22;42052;41.634;-0.946;2023-07-16T08:02:01;26.60;42.10
56172;DHT22;42052;41.634;-0.946;2023-07-16T08:04:27;26.60;41.90
56172;DHT22;42052;41.634;-0.946;2023-07-16T08:06:54;26.60;41.90
56172;DHT22;42052;41.634;-0.946;2023-07-16T08:09:23;26.60;41.90
56172;DHT22;42052;41.634;-0.946;2023-07-16T08:11:48;26.60;41.80
56172;DHT22;42052;41.634;-0.946;2023-07-16T08:14:14;26.60;41.70
56172;DHT22;42052;41.634;-0.946;2023-07-16T08:16:40;26.60;41.60
56172;DHT22;42052;41.634;-0.946;2023-07-16T08:19:06;26.60;41.60
56172;DHT22;42052;41.634;-0.946;2023-07-16T08:21:32;26.60;41.50
56172;DHT22;42052;41.634;-0.946;2023-07-16T08:23:58;26.60;41.40
56172;DHT22;42052;41.634;-0.946;2023-07-16T08:26:24;26.60;41.50
56172;DHT22;42052;41.634;-0.946;2023-07-16T08:28:50;26.60;41.50
56172;DHT22;42052;41.634;-0.946;2023-07-16T08:31:15;26.60;41.50
56172;DHT22;42052;41.634;-0.946;2023-07-16T08:33:41;26.60;41.50
56172;DHT22;42052;41.634;-0.946;2023-07-16T08:36:08;26.60;41.60
56172;DHT22;42052;41.634;-0.946;2023-07-16T08:38:34;26.60;41.60
56172;DHT22;42052;41.634;-0.946;2023-07-16T08:41:00;26.60;41.70
56172;DHT22;42052;41.634;-0.946;2023-07-16T08:43:28;26.60;41.60
56172;DHT22;42052;41.634;-0.946;2023-07-16T08:45:54;26.60;41.70
56172;DHT22;42052;41.634;-0.946;2023-07-16T08:48:21;26.60;41.60
56172;DHT22;42052;41.634;-0.946;2023-07-16T08:50:48;26.60;41.60
56172;DHT22;42052;41.634;-0.946;2023-07-16T08:53:17;26.60;41.70
56172;DHT22;42052;41.634;-0.946;2023-07-16T08:55:47;26.60;41.70
56172;DHT22;42052;41.634;-0.946;2023-07-16T08:58:16;26.60;41.80
56172;DHT22;42052;41.634;-0.946;2023-07-16T09:00:46;26.70;41.80
56172;DHT22;42052;41.634;-0.946;2023-07-16T09:03:12;26.60;41.80
56172;DHT22;42052;41.634;-0.946;2023-07-16T09:05:44;26.60;41.80
56172;DHT22;42052;41.634;-0.946;2023-07-16T09:08:10;26.60;41.90
56172;DHT22;42052;41.634;-0.946;2023-07-16T09:10:36;26.50;41.90
56172;DHT22;42052;41.634;-0.946;2023-07-16T09:13:02;26.50;42.10
56172;DHT22;42052;41.634;-0.946;2023-07-16T09:15:29;26.50;42.60
56172;DHT22;42052;41.634;-0.946;2023-07-16T09:17:55;26.50;42.70
56172;DHT22;42052;41.634;-0.946;2023-07-16T09:20:21;26.40;42.50
56172;DHT22;42052;41.634;-0.946;2023-07-16T09:22:54;26.40;42.40
56172;DHT22;42052;41.634;-0.946;2023-07-16T09:25:27;26.30;42.50
56172;DHT22;42052;41.634;-0.946;2023-07-16T09:27:53;26.30;42.90
56172;DHT22;42052;41.634;-0.946;2023-07-16T09:30:19;26.30;42.80
56172;DHT22;42052;41.634;-0.946;2023-07-16T09:32:44;26.20;43.00
56172;DHT22;42052;41.634;-0.946;2023-07-16T09:35:23;26.20;43.10
56172;DHT22;42052;41.634;-0.946;2023-07-16T09:37:49;26.20;43.40
56172;DHT22;42052;41.634;-0.946;2023-07-16T09:40:16;26.20;43.40
56172;DHT22;42052;41.634;-0.946;2023-07-16T09:42:43;26.20;43.20
56172;DHT22;42052;41.634;-0.946;2023-07-16T09:45:17;26.20;43.00
56172;DHT22;42052;41.634;-0.946;2023-07-16T09:47:44;26.20;43.00
56172;DHT22;42052;41.634;-0.946;2023-07-16T09:50:11;26.20;43.00
56172;DHT22;42052;41.634;-0.946;2023-07-16T09:52:37;26.30;43.20
56172;DHT22;42052;41.634;-0.946;2023-07-16T09:55:08;26.30;43.30
56172;DHT22;42052;41.634;-0.946;2023-07-16T09:57:39;26.20;43.30
56172;DHT22;42052;41.634;-0.946;2023-07-16T10:00:10;26.30;43.40
56172;DHT22;42052;41.634;-0.946;2023-07-16T10:02:40;26.30;43.40
56172;DHT22;42052;41.634;-0.946;2023-07-16T10:05:17;26.30;43.80
56172;DHT22;42052;41.634;-0.946;2023-07-16T10:07:50;26.30;43.90
56172;DHT22;42052;41.634;-0.946;2023-07-16T10:10:17;26.30;43.80
56172;DHT22;42052;41.634;-0.946;2023-07-16T10:12:54;26.40;44.00
56172;DHT22;42052;41.634;-0.946;2023-07-16T10:15:28;26.40;43.70
56172;DHT22;42052;41.634;-0.946;2023-07-16T10:17:54;26.40;43.10
56172;DHT22;42052;41.634;-0.946;2023-07-16T10:20:34;26.40;43.20
56172;DHT22;42052;41.634;-0.946;2023-07-16T10:23:16;26.40;43.70
56172;DHT22;42052;41.634;-0.946;2023-07-16T10:26:01;26.40;43.50
56172;DHT22;42052;41.634;-0.946;2023-07-16T10:28:31;26.50;43.30
56172;DHT22;42052;41.634;-0.946;2023-07-16T10:30:58;26.50;43.20
56172;DHT22;42052;41.634;-0.946;2023-07-16T10:33:24;26.50;43.40
56172;DHT22;42052;41.634;-0.946;2023-07-16T10:35:49;26.50;43.50
56172;DHT22;42052;41.634;-0.946;2023-07-16T10:38:16;26.50;43.30
56172;DHT22;42052;41.634;-0.946;2023-07-16T10:40:43;26.60;43.30
56172;DHT22;42052;41.634;-0.946;2023-07-16T10:43:09;26.60;42.70
56172;DHT22;42052;41.634;-0.946;2023-07-16T10:45:35;26.50;42.70
56172;DHT22;42052;41.634;-0.946;2023-07-16T10:48:01;26.60;42.50
56172;DHT22;42052;41.634;-0.946;2023-07-16T10:50:27;26.60;42.50
56172;DHT22;42052;41.634;-0.946;2023-07-16T10:52:55;26.60;42.30
56172;DHT22;42052;41.634;-0.946;2023-07-16T10:55:22;26.60;42.40
56172;DHT22;42052;41.634;-0.946;2023-07-16T10:57:49;26.70;42.80
56172;DHT22;42052;41.634;-0.946;2023-07-16T11:00:16;26.70;43.30
56172;DHT22;42052;41.634;-0.946;2023-07-16T11:02:43;26.70;42.50
56172;DHT22;42052;41.634;-0.946;2023-07-16T11:05:10;26.80;42.50
56172;DHT22;42052;41.634;-0.946;2023-07-16T11:07:37;26.80;42.50
56172;DHT22;42052;41.634;-0.946;2023-07-16T11:10:03;26.80;42.50
56172;DHT22;42052;41.634;-0.946;2023-07-16T11:12:29;26.80;42.50
56172;DHT22;42052;41.634;-0.946;2023-07-16T11:14:56;26.90;42.50
56172;DHT22;42052;41.634;-0.946;2023-07-16T11:17:23;26.90;42.50
56172;DHT22;42052;41.634;-0.946;2023-07-16T11:19:52;26.90;42.50
56172;DHT22;42052;41.634;-0.946;2023-07-16T11:22:18;26.90;42.50
56172;DHT22;42052;41.634;-0.946;2023-07-16T11:27:14;27.00;42.50
56172;DHT22;42052;41.634;-0.946;2023-07-16T11:29:51;27.00;42.50
56172;DHT22;42052;41.634;-0.946;2023-07-16T11:32:41;27.00;42.50
56172;DHT22;42052;41.634;-0.946;2023-07-16T11:35:15;27.00;42.50
56172;DHT22;42052;41.634;-0.946;2023-07-16T11:37:41;27.00;42.50
56172;DHT22;42052;41.634;-0.946;2023-07-16T11:40:08;27.00;42.50
56172;DHT22;42052;41.634;-0.946;2023-07-16T11:42:39;27.10;42.60
56172;DHT22;42052;41.634;-0.946;2023-07-16T11:45:14;27.10;42.60
56172;DHT22;42052;41.634;-0.946;2023-07-16T11:47:40;27.10;42.70
56172;DHT22;42052;41.634;-0.946;2023-07-16T11:50:07;27.10;42.60
56172;DHT22;42052;41.634;-0.946;2023-07-16T11:52:33;27.10;42.60
56172;DHT22;42052;41.634;-0.946;2023-07-16T11:54:59;27.10;43.00
56172;DHT22;42052;41.634;-0.946;2023-07-16T11:57:25;27.10;42.90
56172;DHT22;42052;41.634;-0.946;2023-07-16T11:59:51;27.10;42.90
56172;DHT22;42052;41.634;-0.946;2023-07-16T12:02:17;27.20;43.00
56172;DHT22;42052;41.634;-0.946;2023-07-16T12:04:43;27.20;43.10
56172;DHT22;42052;41.634;-0.946;2023-07-16T12:07:09;27.20;43.20
56172;DHT22;42052;41.634;-0.946;2023-07-16T12:09:35;27.20;43.30
56172;DHT22;42052;41.634;-0.946;2023-07-16T12:12:01;27.20;43.30
56172;DHT22;42052;41.634;-0.946;2023-07-16T12:14:28;27.20;43.30
56172;DHT22;42052;41.634;-0.946;2023-07-16T12:16:53;27.20;43.30
56172;DHT22;42052;41.634;-0.946;2023-07-16T12:19:19;27.20;43.30
56172;DHT22;42052;41.634;-0.946;2023-07-16T12:21:45;27.20;43.40
56172;DHT22;42052;41.634;-0.946;2023-07-16T12:24:11;27.20;43.40
56172;DHT22;42052;41.634;-0.946;2023-07-16T12:26:37;27.20;43.40
56172;DHT22;42052;41.634;-0.946;2023-07-16T12:29:03;27.20;43.50
56172;DHT22;42052;41.634;-0.946;2023-07-16T12:31:33;27.20;43.40
56172;DHT22;42052;41.634;-0.946;2023-07-16T12:34:01;27.20;43.50
56172;DHT22;42052;41.634;-0.946;2023-07-16T12:36:28;27.20;43.40
56172;DHT22;42052;41.634;-0.946;2023-07-16T12:38:54;27.20;43.40
56172;DHT22;42052;41.634;-0.946;2023-07-16T12:41:19;27.30;43.50
56172;DHT22;42052;41.634;-0.946;2023-07-16T12:43:46;27.30;43.50
56172;DHT22;42052;41.634;-0.946;2023-07-16T12:46:12;27.30;43.50
56172;DHT22;42052;41.634;-0.946;2023-07-16T12:48:37;27.30;43.50
56172;DHT22;42052;41.634;-0.946;2023-07-16T12:51:03;27.30;43.50
56172;DHT22;42052;41.634;-0.946;2023-07-16T12:53:29;27.30;43.50
56172;DHT22;42052;41.634;-0.946;2023-07-16T12:55:55;27.30;43.50
56172;DHT22;42052;41.634;-0.946;2023-07-16T12:58:21;27.30;43.50
56172;DHT22;42052;41.634;-0.946;2023-07-16T13:00:47;27.30;43.50
56172;DHT22;42052;41.634;-0.946;2023-07-16T13:03:12;27.40;43.60
56172;DHT22;42052;41.634;-0.946;2023-07-16T13:05:42;27.30;43.50
56172;DHT22;42052;41.634;-0.946;2023-07-16T13:08:08;27.40;43.60
56172;DHT22;42052;41.634;-0.946;2023-07-16T13:10:34;27.40;43.60
56172;DHT22;42052;41.634;-0.946;2023-07-16T13:13:00;27.40;43.60
56172;DHT22;42052;41.634;-0.946;2023-07-16T13:15:26;27.40;43.60
56172;DHT22;42052;41.634;-0.946;2023-07-16T13:17:52;27.40;43.60
56172;DHT22;42052;41.634;-0.946;2023-07-16T13:20:18;27.40;43.60
56172;DHT22;42052;41.634;-0.946;2023-07-16T13:22:45;27.40;43.60
56172;DHT22;42052;41.634;-0.946;2023-07-16T13:25:11;27.40;43.50
56172;DHT22;42052;41.634;-0.946;2023-07-16T13:27:37;27.40;43.60
56172;DHT22;42052;41.634;-0.946;2023-07-16T13:30:03;27.40;43.50
56172;DHT22;42052;41.634;-0.946;2023-07-16T13:32:29;27.40;43.60
56172;DHT22;42052;41.634;-0.946;2023-07-16T13:34:54;27.40;43.50
56172;DHT22;42052;41.634;-0.946;2023-07-16T13:37:20;27.40;43.50
56172;DHT22;42052;41.634;-0.946;2023-07-16T13:39:46;27.50;43.60
56172;DHT22;42052;41.634;-0.946;2023-07-16T13:42:12;27.40;43.60
56172;DHT22;42052;41.634;-0.946;2023-07-16T13:44:38;27.40;43.60
56172;DHT22;42052;41.634;-0.946;2023-07-16T13:47:03;27.50;43.70
56172;DHT22;42052;41.634;-0.946;2023-07-16T13:49:30;27.40;43.60
56172;DHT22;42052;41.634;-0.946;2023-07-16T13:51:55;27.40;43.60
56172;DHT22;42052;41.634;-0.946;2023-07-16T13:54:21;27.40;43.70
56172;DHT22;42052;41.634;-0.946;2023-07-16T13:56:48;27.40;43.70
56172;DHT22;42052;41.634;-0.946;2023-07-16T13:59:14;27.40;43.80
56172;DHT22;42052;41.634;-0.946;2023-07-16T14:01:40;27.50;43.80
56172;DHT22;42052;41.634;-0.946;2023-07-16T14:04:06;27.50;43.80
56172;DHT22;42052;41.634;-0.946;2023-07-16T14:06:32;27.50;43.80
56172;DHT22;42052;41.634;-0.946;2023-07-16T14:08:58;27.50;43.80
56172;DHT22;42052;41.634;-0.946;2023-07-16T14:11:25;27.50;43.80
56172;DHT22;42052;41.634;-0.946;2023-07-16T14:13:51;27.50;43.80
56172;DHT22;42052;41.634;-0.946;2023-07-16T14:16:23;27.50;43.90
56172;DHT22;42052;41.634;-0.946;2023-07-16T14:18:51;27.50;43.90
56172;DHT22;42052;41.634;-0.946;2023-07-16T14:21:17;27.50;44.00
56172;DHT22;42052;41.634;-0.946;2023-07-16T14:23:43;27.50;44.00
56172;DHT22;42052;41.634;-0.946;2023-07-16T14:26:09;27.50;44.00
56172;DHT22;42052;41.634;-0.946;2023-07-16T14:28:35;27.50;44.00
56172;DHT22;42052;41.634;-0.946;2023-07-16T14:31:01;27.50;44.00
56172;DHT22;42052;41.634;-0.946;2023-07-16T14:33:26;27.50;44.20
56172;DHT22;42052;41.634;-0.946;2023-07-16T14:35:53;27.50;44.20
56172;DHT22;42052;41.634;-0.946;2023-07-16T14:38:19;27.60;44.30
56172;DHT22;42052;41.634;-0.946;2023-07-16T14:40:45;27.60;44.90
56172;DHT22;42052;41.634;-0.946;2023-07-16T14:43:12;27.60;43.20
56172;DHT22;42052;41.634;-0.946;2023-07-16T14:45:37;27.50;41.70
56172;DHT22;42052;41.634;-0.946;2023-07-16T14:48:04;27.40;40.50
56172;DHT22;42052;41.634;-0.946;2023-07-16T14:50:30;27.30;39.20
56172;DHT22;42052;41.634;-0.946;2023-07-16T14:52:56;27.20;38.30
56172;DHT22;42052;41.634;-0.946;2023-07-16T14:55:22;27.00;37.30
56172;DHT22;42052;41.634;-0.946;2023-07-16T14:57:50;26.80;36.50
56172;DHT22;42052;41.634;-0.946;2023-07-16T15:00:16;26.70;36.10
56172;DHT22;42052;41.634;-0.946;2023-07-16T15:02:42;26.60;35.70
56172;DHT22;42052;41.634;-0.946;2023-07-16T15:05:09;26.50;35.40
56172;DHT22;42052;41.634;-0.946;2023-07-16T15:07:35;26.40;35.40
56172;DHT22;42052;41.634;-0.946;2023-07-16T15:10:04;26.30;35.20
56172;DHT22;42052;41.634;-0.946;2023-07-16T15:12:31;26.20;35.20
56172;DHT22;42052;41.634;-0.946;2023-07-16T15:14:57;26.20;35.20
56172;DHT22;42052;41.634;-0.946;2023-07-16T15:17:23;26.10;35.20
56172;DHT22;42052;41.634;-0.946;2023-07-16T15:19:51;26.00;35.50
56172;DHT22;42052;41.634;-0.946;2023-07-16T15:22:17;25.90;35.90